sensor_id;sensor_type;location;lat;lon;timestamp;pressure;altitude;pressure_sealevel;temperature;humidity
44441;BME280;30146;52.268;20.944;2023-09-19T00:02:09;99657.19;;;19.33;63.96
44441;BME280;30146;52.268;20.944;2023-09-19T00:04:41;99657.67;;;19.31;64.00
44441;BME280;30146;52.268;20.944;2023-09-19T00:07:13;99652.92;;;19.29;64.18
44441;BME280;30146;52.268;20.944;2023-09-19T00:09:46;99653.37;;;19.28;64.19
44441;BME280;30146;52.268;20.944;2023-09-19T00:12:17;99648.67;;;19.25;64.23
44441;BME280;30146;52.268;20.944;2023-09-19T00:14:48;99650.48;;;19.23;64.32
44441;BME280;30146;52.268;20.944;2023-09-19T00:17:20;99653.55;;;19.21;64.39
44441;BME280;30146;52.268;20.944;2023-09-19T00:19:51;99655.41;;;19.19;64.55
44441;BME280;30146;52.268;20.944;2023-09-19T00:22:22;99652.27;;;19.16;64.53
44441;BME280;30146;52.268;20.944;2023-09-19T00:24:56;99650.85;;;19.14;64.65
44441;BME280;30146;52.268;20.944;2023-09-19T00:27:27;99650.43;;;19.12;64.85
44441;BME280;30146;52.268;20.944;2023-09-19T00:29:59;99650.72;;;19.10;64.75
44441;BME280;30146;52.268;20.944;2023-09-19T00:32:31;99648.73;;;19.09;64.84
44441;BME280;30146;52.268;20.944;2023-09-19T00:35:04;99648.17;;;19.06;64.90
44441;BME280;30146;52.268;20.944;2023-09-19T00:37:36;99647.05;;;19.04;64.94
44441;BME280;30146;52.268;20.944;2023-09-19T00:40:09;99644.73;;;19.02;65.04
44441;BME280;30146;52.268;20.944;2023-09-19T00:42:42;99640.31;;;19.00;65.10
44441;BME280;30146;52.268;20.944;2023-09-19T00:45:14;99639.07;;;18.98;65.19
44441;BME280;30146;52.268;20.944;2023-09-19T00:47:47;99638.07;;;18.97;65.24
44441;BME280;30146;52.268;20.944;2023-09-19T00:50:23;99633.52;;;18.95;65.36
44441;BME280;30146;52.268;20.944;2023-09-19T00:52:54;99636.02;;;18.94;65.36
44441;BME280;30146;52.268;20.944;2023-09-19T00:55:27;99637.95;;;18.93;65.39
44441;BME280;30146;52.268;20.944;2023-09-19T00:58:00;99637.71;;;18.92;65.62
44441;BME280;30146;52.268;20.944;2023-09-19T01:00:31;99636.08;;;18.90;65.53
44441;BME280;30146;52.268;20.944;2023-09-19T01:03:04;99634.64;;;18.88;65.56
44441;BME280;30146;52.268;20.944;2023-09-19T01:05:36;99629.61;;;18.85;65.58
44441;BME280;30146;52.268;20.944;2023-09-19T01:08:07;99626.42;;;18.83;65.67
44441;BME280;30146;52.268;20.944;2023-09-19T01:10:46;99625.48;;;18.80;65.75
44441;BME280;30146;52.268;20.944;2023-09-19T01:13:26;99620.36;;;18.79;65.82
44441;BME280;30146;52.268;20.944;2023-09-19T01:16:23;99618.77;;;18.76;66.00
44441;BME280;30146;52.268;20.944;2023-09-19T01:19:05;99617.15;;;18.74;65.95
44441;BME280;30146;52.268;20.944;2023-09-19T01:22:10;99615.29;;;18.73;65.98
44441;BME280;30146;52.268;20.944;2023-09-19T01:25:26;99607.77;;;18.72;66.07
44441;BME280;30146;52.268;20.944;2023-09-19T01:28:24;99604.55;;;18.71;66.13
44441;BME280;30146;52.268;20.944;2023-09-19T01:31:02;99603.30;;;18.68;66.22
44441;BME280;30146;52.268;20.944;2023-09-19T01:33:58;99603.34;;;18.67;66.33
44441;BME280;30146;52.268;20.944;2023-09-19T01:36:33;99602.37;;;18.66;66.29
44441;BME280;30146;52.268;20.944;2023-09-19T01:39:07;99598.77;;;18.65;66.37
44441;BME280;30146;52.268;20.944;2023-09-19T01:42:05;99595.69;;;18.64;66.40
44441;BME280;30146;52.268;20.944;2023-09-19T01:44:54;99591.23;;;18.64;66.53
44441;BME280;30146;52.268;20.944;2023-09-19T01:47:34;99590.95;;;18.63;66.58
44441;BME280;30146;52.268;20.944;2023-09-19T01:50:17;99586.62;;;18.62;66.59
44441;BME280;30146;52.268;20.944;2023-09-19T01:52:52;99582.48;;;18.62;66.62
44441;BME280;30146;52.268;20.944;2023-09-19T01:55:28;99577.89;;;18.61;66.68
44441;BME280;30146;52.268;20.944;2023-09-19T01:58:04;99575.69;;;18.60;66.71
44441;BME280;30146;52.268;20.944;2023-09-19T02:00:39;99577.92;;;18.60;66.77
44441;BME280;30146;52.268;20.944;2023-09-19T02:03:11;99576.05;;;18.60;66.78
44441;BME280;30146;52.268;20.944;2023-09-19T02:05:50;99575.02;;;18.60;66.79
44441;BME280;30146;52.268;20.944;2023-09-19T02:08:24;99580.75;;;18.59;66.75
44441;BME280;30146;52.268;20.944;2023-09-19T02:10:54;99578.68;;;18.59;66.82
44441;BME280;30146;52.268;20.944;2023-09-19T02:13:25;99574.60;;;18.58;66.83
44441;BME280;30146;52.268;20.944;2023-09-19T02:15:58;99575.64;;;18.58;66.95
44441;BME280;30146;52.268;20.944;2023-09-19T02:18:30;99571.69;;;18.57;66.88
44441;BME280;30146;52.268;20.944;2023-09-19T02:21:01;99570.67;;;18.57;66.91
44441;BME280;30146;52.268;20.944;2023-09-19T02:23:37;99566.79;;;18.55;66.95
44441;BME280;30146;52.268;20.944;2023-09-19T02:26:09;99566.93;;;18.56;66.96
44441;BME280;30146;52.268;20.944;2023-09-19T02:28:41;99563.39;;;18.54;66.97
44441;BME280;30146;52.268;20.944;2023-09-19T02:31:12;99563.16;;;18.52;67.04
44441;BME280;30146;52.268;20.944;2023-09-19T02:33:44;99556.67;;;18.50;67.06
44441;BME280;30146;52.268;20.944;2023-09-19T02:36:18;99549.88;;;18.48;67.08
44441;BME280;30146;52.268;20.944;2023-09-19T02:38:50;99543.69;;;18.47;67.11
44441;BME280;30146;52.268;20.944;2023-09-19T02:41:21;99544.52;;;18.45;67.11
44441;BME280;30146;52.268;20.944;2023-09-19T02:43:52;99545.95;;;18.44;67.16
44441;BME280;30146;52.268;20.944;2023-09-19T02:46:23;99549.13;;;18.42;67.14
44441;BME280;30146;52.268;20.944;2023-09-19T02:48:56;99547.33;;;18.41;67.21
44441;BME280;30146;52.268;20.944;2023-09-19T02:51:27;99542.20;;;18.39;67.32
44441;BME280;30146;52.268;20.944;2023-09-19T02:54:00;99539.35;;;18.38;67.37
44441;BME280;30146;52.268;20.944;2023-09-19T02:56:32;99538.04;;;18.36;67.27
44441;BME280;30146;52.268;20.944;2023-09-19T02:59:05;99540.59;;;18.34;67.39
44441;BME280;30146;52.268;20.944;2023-09-19T03:01:37;99536.39;;;18.32;67.38
44441;BME280;30146;52.268;20.944;2023-09-19T03:04:08;99533.06;;;18.29;67.50
44441;BME280;30146;52.268;20.944;2023-09-19T03:06:41;99539.06;;;18.27;67.51
44441;BME280;30146;52.268;20.944;2023-09-19T03:09:12;99534.31;;;18.25;67.57
44441;BME280;30146;52.268;20.944;2023-09-19T03:11:44;99528.88;;;18.23;67.68
44441;BME280;30146;52.268;20.944;2023-09-19T03:14:17;99528.66;;;18.21;67.65
44441;BME280;30146;52.268;20.944;2023-09-19T03:16:50;99523.45;;;18.18;67.72
44441;BME280;30146;52.268;20.944;2023-09-19T03:19:22;99530.67;;;18.16;67.82
44441;BME280;30146;52.268;20.944;2023-09-19T03:21:53;99529.05;;;18.14;67.86
44441;BME280;30146;52.268;20.944;2023-09-19T03:24:28;99528.48;;;18.12;67.94
44441;BME280;30146;52.268;20.944;2023-09-19T03:27:00;99528.09;;;18.09;68.09
44441;BME280;30146;52.268;20.944;2023-09-19T03:29:30;99528.38;;;18.07;68.09
44441;BME280;30146;52.268;20.944;2023-09-19T03:32:05;99523.80;;;18.05;68.10
44441;BME280;30146;52.268;20.944;2023-09-19T03:34:37;99516.39;;;18.05;68.25
44441;BME280;30146;52.268;20.944;2023-09-19T03:37:11;99522.11;;;18.05;68.31
44441;BME280;30146;52.268;20.944;2023-09-19T03:39:42;99518.01;;;18.03;68.26
44441;BME280;30146;52.268;20.944;2023-09-19T03:42:14;99518.73;;;18.03;68.38
44441;BME280;30146;52.268;20.944;2023-09-19T03:44:45;99513.23;;;18.02;68.31
44441;BME280;30146;52.268;20.944;2023-09-19T03:47:16;99504.85;;;18.01;68.39
44441;BME280;30146;52.268;20.944;2023-09-19T03:49:49;99507.98;;;18.01;68.40
44441;BME280;30146;52.268;20.944;2023-09-19T03:52:20;99506.86;;;17.99;68.49
44441;BME280;30146;52.268;20.944;2023-09-19T03:54:51;99507.95;;;17.98;68.44
44441;BME280;30146;52.268;20.944;2023-09-19T03:57:21;99510.96;;;17.96;68.63
44441;BME280;30146;52.268;20.944;2023-09-19T03:59:53;99511.69;;;17.96;68.60
44441;BME280;30146;52.268;20.944;2023-09-19T04:02:25;99510.88;;;17.95;68.69
44441;BME280;30146;52.268;20.944;2023-09-19T04:05:02;99502.81;;;17.94;68.74
44441;BME280;30146;52.268;20.944;2023-09-19T04:07:33;99501.27;;;17.93;68.79
44441;BME280;30146;52.268;20.944;2023-09-19T04:17:38;99486.06;;;17.93;68.99
44441;BME280;30146;52.268;20.944;2023-09-19T04:20:14;99485.52;;;17.93;68.95
44441;BME280;30146;52.268;20.944;2023-09-19T04:22:45;99488.13;;;17.94;69.03
44441;BME280;30146;52.268;20.944;2023-09-19T04:25:17;99489.16;;;17.94;69.01
44441;BME280;30146;52.268;20.944;2023-09-19T04:27:49;99481.40;;;17.93;69.03
44441;BME280;30146;52.268;20.944;2023-09-19T04:30:20;99478.80;;;17.93;69.07
44441;BME280;30146;52.268;20.944;2023-09-19T04:32:51;99474.52;;;17.93;69.12
44441;BME280;30146;52.268;20.944;2023-09-19T04:35:23;99475.92;;;17.92;69.14
44441;BME280;30146;52.268;20.944;2023-09-19T04:37:55;99473.48;;;17.93;69.20
44441;BME280;30146;52.268;20.944;2023-09-19T04:40:26;99471.65;;;17.91;69.23
44441;BME280;30146;52.268;20.944;2023-09-19T04:42:59;99472.51;;;17.92;69.18
44441;BME280;30146;52.268;20.944;2023-09-19T04:45:30;99471.83;;;17.91;69.24
44441;BME280;30146;52.268;20.944;2023-09-19T04:48:02;99471.02;;;17.90;69.28
44441;BME280;30146;52.268;20.944;2023-09-19T04:50:34;99470.67;;;17.90;69.33
44441;BME280;30146;52.268;20.944;2023-09-19T04:53:06;99472.02;;;17.91;69.45
44441;BME280;30146;52.268;20.944;2023-09-19T04:55:38;99468.55;;;17.91;69.39
44441;BME280;30146;52.268;20.944;2023-09-19T04:58:08;99469.66;;;17.93;69.53
44441;BME280;30146;52.268;20.944;2023-09-19T05:00:39;99466.16;;;17.93;69.51
44441;BME280;30146;52.268;20.944;2023-09-19T05:03:10;99464.69;;;17.95;69.58
44441;BME280;30146;52.268;20.944;2023-09-19T05:05:41;99468.90;;;17.97;69.54
44441;BME280;30146;52.268;20.944;2023-09-19T05:08:12;99464.56;;;18.01;69.64
44441;BME280;30146;52.268;20.944;2023-09-19T05:10:44;99461.04;;;18.05;69.69
44441;BME280;30146;52.268;20.944;2023-09-19T05:13:15;99460.61;;;18.10;69.67
44441;BME280;30146;52.268;20.944;2023-09-19T05:15:46;99460.82;;;18.16;69.61
44441;BME280;30146;52.268;20.944;2023-09-19T05:18:17;99463.42;;;18.22;69.62
44441;BME280;30146;52.268;20.944;2023-09-19T05:20:48;99462.92;;;18.27;69.54
44441;BME280;30146;52.268;20.944;2023-09-19T05:23:20;99464.16;;;18.34;69.51
44441;BME280;30146;52.268;20.944;2023-09-19T05:25:52;99462.36;;;18.38;69.47
44441;BME280;30146;52.268;20.944;2023-09-19T05:28:25;99465.45;;;18.42;69.43
44441;BME280;30146;52.268;20.944;2023-09-19T05:30:57;99462.18;;;18.44;69.31
44441;BME280;30146;52.268;20.944;2023-09-19T05:33:32;99463.59;;;18.46;69.30
44441;BME280;30146;52.268;20.944;2023-09-19T05:36:03;99466.64;;;18.48;69.16
44441;BME280;30146;52.268;20.944;2023-09-19T05:38:34;99466.74;;;18.49;69.24
44441;BME280;30146;52.268;20.944;2023-09-19T05:41:05;99464.75;;;18.51;69.24
44441;BME280;30146;52.268;20.944;2023-09-19T05:43:37;99464.64;;;18.53;69.13
44441;BME280;30146;52.268;20.944;2023-09-19T05:46:11;99460.16;;;18.55;69.11
44441;BME280;30146;52.268;20.944;2023-09-19T05:48:43;99458.05;;;18.59;69.09
44441;BME280;30146;52.268;20.944;2023-09-19T05:51:14;99454.75;;;18.62;69.03
44441;BME280;30146;52.268;20.944;2023-09-19T05:53:47;99453.14;;;18.66;68.98
44441;BME280;30146;52.268;20.944;2023-09-19T05:56:18;99451.67;;;18.71;68.99
44441;BME280;30146;52.268;20.944;2023-09-19T05:58:49;99465.40;;;18.76;69.03
44441;BME280;30146;52.268;20.944;2023-09-19T06:01:22;99462.02;;;18.84;69.12
44441;BME280;30146;52.268;20.944;2023-09-19T06:03:54;99469.39;;;18.91;68.90
44441;BME280;30146;52.268;20.944;2023-09-19T06:06:26;99477.20;;;19.00;68.95
44441;BME280;30146;52.268;20.944;2023-09-19T06:08:58;99478.20;;;19.10;68.86
44441;BME280;30146;52.268;20.944;2023-09-19T06:11:29;99489.34;;;19.20;68.85
44441;BME280;30146;52.268;20.944;2023-09-19T06:14:07;99483.31;;;19.32;68.69
44441;BME280;30146;52.268;20.944;2023-09-19T06:16:40;99486.55;;;19.47;68.73
44441;BME280;30146;52.268;20.944;2023-09-19T06:19:13;99484.51;;;19.61;68.68
44441;BME280;30146;52.268;20.944;2023-09-19T06:21:45;99481.58;;;19.72;68.13
44441;BME280;30146;52.268;20.944;2023-09-19T06:24:17;99485.94;;;19.84;68.01
44441;BME280;30146;52.268;20.944;2023-09-19T06:26:50;99484.57;;;19.92;67.75
44441;BME280;30146;52.268;20.944;2023-09-19T06:29:22;99485.44;;;20.06;67.67
44441;BME280;30146;52.268;20.944;2023-09-19T06:31:54;99484.09;;;20.30;67.69
44441;BME280;30146;52.268;20.944;2023-09-19T06:34:26;99484.69;;;20.65;67.67
44441;BME280;30146;52.268;20.944;2023-09-19T06:37:01;99490.66;;;20.85;67.20
44441;BME280;30146;52.268;20.944;2023-09-19T06:39:33;99492.58;;;20.93;66.38
44441;BME280;30146;52.268;20.944;2023-09-19T06:42:05;99495.30;;;20.96;66.16
44441;BME280;30146;52.268;20.944;2023-09-19T06:44:39;99493.83;;;21.00;65.83
44441;BME280;30146;52.268;20.944;2023-09-19T06:47:10;99494.81;;;21.11;66.10
44441;BME280;30146;52.268;20.944;2023-09-19T06:49:42;99499.89;;;21.34;66.53
44441;BME280;30146;52.268;20.944;2023-09-19T06:52:14;99497.39;;;21.56;66.00
44441;BME280;30146;52.268;20.944;2023-09-19T06:54:45;99500.38;;;21.86;65.69
44441;BME280;30146;52.268;20.944;2023-09-19T06:57:17;99499.56;;;22.13;65.69
44441;BME280;30146;52.268;20.944;2023-09-19T06:59:50;99500.34;;;22.43;65.15
44441;BME280;30146;52.268;20.944;2023-09-19T07:02:21;99496.52;;;22.77;64.72
44441;BME280;30146;52.268;20.944;2023-09-19T07:04:56;99503.52;;;23.05;64.52
44441;BME280;30146;52.268;20.944;2023-09-19T07:07:27;99507.96;;;23.28;64.01
44441;BME280;30146;52.268;20.944;2023-09-19T07:10:23;99508.84;;;23.50;63.39
44441;BME280;30146;52.268;20.944;2023-09-19T07:13:00;99506.47;;;23.77;63.36
44441;BME280;30146;52.268;20.944;2023-09-19T07:15:39;99504.23;;;23.97;62.44
44441;BME280;30146;52.268;20.944;2023-09-19T07:18:18;99511.26;;;24.12;61.74
44441;BME280;30146;52.268;20.944;2023-09-19T07:20:50;99517.05;;;24.16;61.12
44441;BME280;30146;52.268;20.944;2023-09-19T07:23:22;99519.10;;;24.16;60.74
44441;BME280;30146;52.268;20.944;2023-09-19T07:25:59;99526.80;;;24.14;60.51
44441;BME280;30146;52.268;20.944;2023-09-19T07:28:33;99524.64;;;24.14;60.60
44441;BME280;30146;52.268;20.944;2023-09-19T07:31:06;99522.39;;;24.23;60.78
44441;BME280;30146;52.268;20.944;2023-09-19T07:33:43;99519.86;;;24.35;60.55
44441;BME280;30146;52.268;20.944;2023-09-19T07:36:15;99527.82;;;24.49;60.45
44441;BME280;30146;52.268;20.944;2023-09-19T07:38:46;99529.56;;;24.63;60.25
44441;BME280;30146;52.268;20.944;2023-09-19T07:41:17;99532.52;;;24.71;60.08
44441;BME280;30146;52.268;20.944;2023-09-19T07:43:49;99535.05;;;24.79;59.63
44441;BME280;30146;52.268;20.944;2023-09-19T07:46:21;99545.66;;;24.80;59.39
44441;BME280;30146;52.268;20.944;2023-09-19T07:48:55;99541.88;;;24.76;58.97
44441;BME280;30146;52.268;20.944;2023-09-19T07:51:26;99547.59;;;24.71;58.88
44441;BME280;30146;52.268;20.944;2023-09-19T07:54:03;99558.77;;;24.62;58.62
44441;BME280;30146;52.268;20.944;2023-09-19T07:56:36;99562.15;;;24.53;58.62
44441;BME280;30146;52.268;20.944;2023-09-19T07:59:07;99559.95;;;24.43;58.44
44441;BME280;30146;52.268;20.944;2023-09-19T08:01:39;99559.70;;;24.31;58.35
44441;BME280;30146;52.268;20.944;2023-09-19T08:04:14;99555.09;;;24.20;58.37
44441;BME280;30146;52.268;20.944;2023-09-19T08:06:46;99555.52;;;24.11;58.34
44441;BME280;30146;52.268;20.944;2023-09-19T08:09:17;99553.52;;;24.02;58.48
44441;BME280;30146;52.268;20.944;2023-09-19T08:11:54;99558.42;;;23.96;58.54
44441;BME280;30146;52.268;20.944;2023-09-19T08:14:27;99563.39;;;23.88;58.50
44441;BME280;30146;52.268;20.944;2023-09-19T08:16:59;99571.46;;;23.83;58.70
44441;BME280;30146;52.268;20.944;2023-09-19T08:19:31;99574.37;;;23.79;58.90
44441;BME280;30146;52.268;20.944;2023-09-19T08:22:03;99576.95;;;23.74;59.02
44441;BME280;30146;52.268;20.944;2023-09-19T08:24:39;99579.33;;;23.71;59.07
44441;BME280;30146;52.268;20.944;2023-09-19T08:27:13;99578.94;;;23.67;59.20
44441;BME280;30146;52.268;20.944;2023-09-19T08:29:44;99587.38;;;23.63;59.22
44441;BME280;30146;52.268;20.944;2023-09-19T08:32:17;99585.46;;;23.61;59.25
44441;BME280;30146;52.268;20.944;2023-09-19T08:34:50;99587.47;;;23.60;59.19
44441;BME280;30146;52.268;20.944;2023-09-19T08:37:23;99592.04;;;23.59;59.11
44441;BME280;30146;52.268;20.944;2023-09-19T08:39:56;99594.27;;;23.58;59.12
44441;BME280;30146;52.268;20.944;2023-09-19T08:42:29;99594.11;;;23.53;59.11
44441;BME280;30146;52.268;20.944;2023-09-19T08:45:00;99589.98;;;23.47;59.05
44441;BME280;30146;52.268;20.944;2023-09-19T08:47:45;99589.63;;;23.41;59.05
44441;BME280;30146;52.268;20.944;2023-09-19T08:50:23;99583.21;;;23.31;59.14
44441;BME280;30146;52.268;20.944;2023-09-19T08:53:06;99582.14;;;23.24;59.24
44441;BME280;30146;52.268;20.944;2023-09-19T08:55:45;99576.79;;;23.18;59.36
44441;BME280;30146;52.268;20.944;2023-09-19T08:58:20;99573.83;;;23.14;59.46
44441;BME280;30146;52.268;20.944;2023-09-19T09:00:57;99578.23;;;23.11;59.64
44441;BME280;30146;52.268;20.944;2023-09-19T09:03:35;99575.92;;;23.07;59.59
44441;BME280;30146;52.268;20.944;2023-09-19T09:06:10;99577.48;;;23.02;59.65
44441;BME280;30146;52.268;20.944;2023-09-19T09:08:49;99574.01;;;22.97;59.82
44441;BME280;30146;52.268;20.944;2023-09-19T09:11:22;99571.17;;;22.93;60.01
44441;BME280;30146;52.268;20.944;2023-09-19T09:13:55;99581.52;;;22.89;60.15
44441;BME280;30146;52.268;20.944;2023-09-19T09:16:27;99583.96;;;22.84;60.19
44441;BME280;30146;52.268;20.944;2023-09-19T09:19:06;99599.63;;;22.77;60.23
44441;BME280;30146;52.268;20.944;2023-09-19T09:21:37;99597.33;;;22.68;60.25
44441;BME280;30146;52.268;20.944;2023-09-19T09:24:30;99597.92;;;22.60;60.55
44441;BME280;30146;52.268;20.944;2023-09-19T09:27:05;99611.58;;;22.49;60.81
44441;BME280;30146;52.268;20.944;2023-09-19T09:29:48;99623.87;;;22.38;61.25
44441;BME280;30146;52.268;20.944;2023-09-19T09:32:21;99637.39;;;22.26;61.56
44441;BME280;30146;52.268;20.944;2023-09-19T09:34:56;99641.66;;;22.14;61.97
44441;BME280;30146;52.268;20.944;2023-09-19T09:37:30;99635.23;;;22.01;62.14
44441;BME280;30146;52.268;20.944;2023-09-19T09:40:09;99633.05;;;21.89;62.37
44441;BME280;30146;52.268;20.944;2023-09-19T09:43:04;99635.58;;;21.76;62.73
44441;BME280;30146;52.268;20.944;2023-09-19T09:46:09;99640.90;;;21.63;63.24
44441;BME280;30146;52.268;20.944;2023-09-19T09:49:03;99651.35;;;21.50;63.45
44441;BME280;30146;52.268;20.944;2023-09-19T09:52:03;99655.52;;;21.39;63.79
44441;BME280;30146;52.268;20.944;2023-09-19T09:54:39;99658.33;;;21.30;64.28
44441;BME280;30146;52.268;20.944;2023-09-19T09:57:29;99662.48;;;21.23;64.52
44441;BME280;30146;52.268;20.944;2023-09-19T10:00:01;99660.14;;;21.16;64.84
44441;BME280;30146;52.268;20.944;2023-09-19T10:02:46;99655.80;;;21.10;65.03
44441;BME280;30146;52.268;20.944;2023-09-19T10:05:19;99653.53;;;21.05;65.36
44441;BME280;30146;52.268;20.944;2023-09-19T10:07:59;99643.73;;;21.01;65.67
44441;BME280;30146;52.268;20.944;2023-09-19T10:10:43;99638.95;;;20.97;65.90
44441;BME280;30146;52.268;20.944;2023-09-19T10:13:28;99639.52;;;20.93;66.26
44441;BME280;30146;52.268;20.944;2023-09-19T10:16:07;99638.00;;;20.90;66.29
44441;BME280;30146;52.268;20.944;2023-09-19T10:18:43;99641.30;;;20.89;66.58
44441;BME280;30146;52.268;20.944;2023-09-19T10:21:16;99645.55;;;20.88;66.75
44441;BME280;30146;52.268;20.944;2023-09-19T10:23:55;99654.11;;;20.88;66.99
44441;BME280;30146;52.268;20.944;2023-09-19T10:26:30;99659.67;;;20.85;66.89
44441;BME280;30146;52.268;20.944;2023-09-19T10:29:02;99666.88;;;20.83;67.12
44441;BME280;30146;52.268;20.944;2023-09-19T10:31:38;99662.50;;;20.84;67.51
44441;BME280;30146;52.268;20.944;2023-09-19T10:34:12;99661.34;;;20.86;67.63
44441;BME280;30146;52.268;20.944;2023-09-19T10:36:46;99659.95;;;20.89;67.87
44441;BME280;30146;52.268;20.944;2023-09-19T10:39:18;99659.51;;;20.93;68.13
44441;BME280;30146;52.268;20.944;2023-09-19T10:41:53;99662.20;;;20.94;67.82
44441;BME280;30146;52.268;20.944;2023-09-19T10:44:31;99661.90;;;20.96;67.90
44441;BME280;30146;52.268;20.944;2023-09-19T10:47:03;99662.33;;;20.98;68.07
44441;BME280;30146;52.268;20.944;2023-09-19T10:49:44;99663.27;;;21.00;68.20
44441;BME280;30146;52.268;20.944;2023-09-19T10:52:21;99664.27;;;21.00;67.90
44441;BME280;30146;52.268;20.944;2023-09-19T10:54:58;99662.89;;;21.00;68.14
44441;BME280;30146;52.268;20.944;2023-09-19T10:57:32;99661.67;;;21.03;68.39
44441;BME280;30146;52.268;20.944;2023-09-19T11:00:05;99667.97;;;21.05;68.46
44441;BME280;30146;52.268;20.944;2023-09-19T11:03:21;99671.85;;;21.09;68.72
44441;BME280;30146;52.268;20.944;2023-09-19T11:06:11;99678.40;;;21.13;68.70
44441;BME280;30146;52.268;20.944;2023-09-19T11:09:07;99673.39;;;21.15;68.51
44441;BME280;30146;52.268;20.944;2023-09-19T11:11:52;99675.66;;;21.18;68.69
44441;BME280;30146;52.268;20.944;2023-09-19T11:14:39;99675.32;;;21.20;68.73
44441;BME280;30146;52.268;20.944;2023-09-19T11:17:34;99677.50;;;21.24;68.90
44441;BME280;30146;52.268;20.944;2023-09-19T11:20:24;99676.17;;;21.29;68.79
44441;BME280;30146;52.268;20.944;2023-09-19T11:23:24;99678.75;;;21.32;68.69
44441;BME280;30146;52.268;20.944;2023-09-19T11:25:56;99677.70;;;21.34;68.76
44441;BME280;30146;52.268;20.944;2023-09-19T11:28:32;99674.79;;;21.37;68.65
44441;BME280;30146;52.268;20.944;2023-09-19T11:34:40;99675.10;;;21.46;68.85
44441;BME280;30146;52.268;20.944;2023-09-19T11:40:33;99671.48;;;21.50;68.81
44441;BME280;30146;52.268;20.944;2023-09-19T11:43:29;99677.64;;;21.52;68.96
44441;BME280;30146;52.268;20.944;2023-09-19T11:46:09;99679.23;;;21.54;68.87
44441;BME280;30146;52.268;20.944;2023-09-19T11:49:41;99682.50;;;21.52;68.65
44441;BME280;30146;52.268;20.944;2023-09-19T11:55:29;99688.70;;;21.51;68.72
44441;BME280;30146;52.268;20.944;2023-09-19T11:58:08;99685.02;;;21.51;68.88
44441;BME280;30146;52.268;20.944;2023-09-19T12:00:39;99687.57;;;21.52;68.74
44441;BME280;30146;52.268;20.944;2023-09-19T12:03:19;99688.61;;;21.52;68.89
44441;BME280;30146;52.268;20.944;2023-09-19T12:05:52;99698.62;;;21.53;68.81
44441;BME280;30146;52.268;20.944;2023-09-19T12:08:33;99696.13;;;21.54;69.06
44441;BME280;30146;52.268;20.944;2023-09-19T12:11:05;99702.02;;;21.57;69.12
44441;BME280;30146;52.268;20.944;2023-09-19T12:13:50;99698.02;;;21.57;68.95
44441;BME280;30146;52.268;20.944;2023-09-19T12:16:23;99696.68;;;21.56;68.76
44441;BME280;30146;52.268;20.944;2023-09-19T12:22:16;99707.71;;;21.58;69.06
44441;BME280;30146;52.268;20.944;2023-09-19T12:24:49;99706.45;;;21.59;68.91
44441;BME280;30146;52.268;20.944;2023-09-19T12:27:24;99711.69;;;21.58;68.95
44441;BME280;30146;52.268;20.944;2023-09-19T12:34:39;99710.80;;;21.56;68.92
44441;BME280;30146;52.268;20.944;2023-09-19T12:37:13;99708.48;;;21.54;68.97
44441;BME280;30146;52.268;20.944;2023-09-19T12:40:03;99711.60;;;21.51;68.98
44441;BME280;30146;52.268;20.944;2023-09-19T12:42:48;99714.20;;;21.49;69.00
44441;BME280;30146;52.268;20.944;2023-09-19T12:45:46;99714.05;;;21.45;68.91
44441;BME280;30146;52.268;20.944;2023-09-19T12:48:28;99714.73;;;21.43;69.06
44441;BME280;30146;52.268;20.944;2023-09-19T12:51:06;99716.11;;;21.40;69.10
44441;BME280;30146;52.268;20.944;2023-09-19T12:53:40;99714.22;;;21.37;69.13
44441;BME280;30146;52.268;20.944;2023-09-19T12:56:15;99714.31;;;21.36;69.28
44441;BME280;30146;52.268;20.944;2023-09-19T12:58:54;99716.20;;;21.33;69.32
44441;BME280;30146;52.268;20.944;2023-09-19T13:01:27;99715.64;;;21.31;69.49
44441;BME280;30146;52.268;20.944;2023-09-19T13:04:16;99711.48;;;21.31;69.64
44441;BME280;30146;52.268;20.944;2023-09-19T13:06:56;99711.95;;;21.29;69.64
44441;BME280;30146;52.268;20.944;2023-09-19T13:09:31;99710.15;;;21.27;69.84
44441;BME280;30146;52.268;20.944;2023-09-19T13:12:06;99711.22;;;21.27;69.90
44441;BME280;30146;52.268;20.944;2023-09-19T13:15:10;99709.73;;;21.26;69.77
44441;BME280;30146;52.268;20.944;2023-09-19T13:17:46;99711.27;;;21.23;70.02
44441;BME280;30146;52.268;20.944;2023-09-19T13:20:26;99714.57;;;21.21;69.93
44441;BME280;30146;52.268;20.944;2023-09-19T13:23:03;99712.75;;;21.19;70.18
44441;BME280;30146;52.268;20.944;2023-09-19T13:25:40;99714.86;;;21.19;70.21
44441;BME280;30146;52.268;20.944;2023-09-19T13:28:11;99713.33;;;21.19;70.38
44441;BME280;30146;52.268;20.944;2023-09-19T13:30:42;99715.20;;;21.19;70.52
44441;BME280;30146;52.268;20.944;2023-09-19T13:33:14;99715.85;;;21.20;70.55
44441;BME280;30146;52.268;20.944;2023-09-19T13:35:54;99720.36;;;21.20;70.65
44441;BME280;30146;52.268;20.944;2023-09-19T13:38:26;99719.97;;;21.21;70.84
44441;BME280;30146;52.268;20.944;2023-09-19T13:41:00;99721.96;;;21.22;70.94
44441;BME280;30146;52.268;20.944;2023-09-19T13:43:34;99724.45;;;21.24;70.96
44441;BME280;30146;52.268;20.944;2023-09-19T13:46:29;99725.01;;;21.26;71.06
44441;BME280;30146;52.268;20.944;2023-09-19T13:49:04;99723.09;;;21.29;71.18
44441;BME280;30146;52.268;20.944;2023-09-19T13:51:35;99724.37;;;21.31;71.14
44441;BME280;30146;52.268;20.944;2023-09-19T13:54:06;99723.05;;;21.30;71.02
44441;BME280;30146;52.268;20.944;2023-09-19T13:56:37;99723.11;;;21.28;70.84
44441;BME280;30146;52.268;20.944;2023-09-19T13:59:12;99724.89;;;21.28;71.09
44441;BME280;30146;52.268;20.944;2023-09-19T14:01:44;99722.95;;;21.29;71.08